Aérodrome :
LOGIN :

S'inscrire | Disclaimer

   EN    FR    IT 

 










Légende :    VFR   VFR Marginal   IFR   IFR Intensif   IFR Très Intensif
Visi : 
Plafond : 
>= 8 km
>= 3000ft
5 à 8 km
1000 à 3000 ft
1500m à 5 km
500 à 1000 ft
800 à 1500m
200 à 500 ft
< 800m
< 200 ft
Symboles :   Orages  Brouillard  Fortes neiges  Fortes précipitations  Vent > 20 kt
SIGMETs :   Divers  Orages  Givrage  Turbulence  Onde Orograph.  Cendres Volcan.







- Altitude de l'aérodrome : 1475 ft


LSZC - Buochs Stans

DERNIER METAR :
  • 230020Z AUTO 21006KT 160V270 9999 -RA SCT044 BKN049 07/03 Q1022

METARs EXPIRÉS :
  • 222350Z AUTO VRB05KT 9999 OVC050 08/03 Q1022
  • 222320Z AUTO 20004KT 150V260 9999 BKN050 BKN070 08/04 Q1022
  • 222250Z AUTO 27007KT 240V300 9999 -RA SCT050 BKN070 08/04 Q1022
  • 222220Z AUTO 27004KT 210V320 9999 BKN048 SCT060 07/05 Q1022
  • 222150Z AUTO VRB03KT 9999 BKN050 BKN090 08/05 Q1022

Prévision TAF périmée.
Pas de NOTAMs connus pour ce terrain.
1 SIGMET publié pour la FIR Switzerland (LSAS) :
 
Turbulence forte
LSAS SIGMET 2 VALID 222348/230300 LSZH
LSAS SWITZERLAND UIR SEV TURB FCST W OF LINE N4544 E00910 - N4749 E00819 FL220/330 MOV E 10KT NC=



MET'MAP, la Météo Aéronautique d'un coup d'oeil ! - Copyright ORBIFLY Décembre 2007 - Disclaimer

ORBIFLY MET'MAP TEAM :

Programmation & Développement : Alexandra Zaïnal
Conception & Développement : Baudouin d'Aumeries
Co-Programmation & Développement : Marc-Olivier Méhu
Soutien technique & logistique : Manuel Goepfert

Contact : metmap@orbifly.com




SOURCES & CREDITS :

   NOAA